Time;durP1;ratioP1;P1;durP2;ratioP2;P2;SDS_P1;SDS_P2;PMS_P1;PMS_P2;Temp;Humidity;BMP_temperature;BMP_pressure;BME280_temperature;BME280_humidity;BME280_pressure;Samples;Min_cycle;Max_cycle;Signal;HPM_P1;HPM_P2
2023/03/04 00:00:21;;;;;;;15.37;13.77;;;3.70;99.90;;;;;;5013526;28;20246;-63
2023/03/04 00:02:47;;;;;;;17.73;14.77;;;3.70;99.90;;;;;;5032634;28;20535;-63
2023/03/04 00:05:13;;;;;;;15.77;13.70;;;3.70;99.90;;;;;;5033532;28;20222;-63
2023/03/04 00:07:38;;;;;;;19.27;13.90;;;3.70;99.90;;;;;;5033476;28;20207;-63
2023/03/04 00:10:05;;;;;;;17.70;13.63;;;3.70;99.90;;;;;;5033151;28;20625;-63
2023/03/04 00:12:30;;;;;;;19.37;13.40;;;3.70;99.90;;;;;;5033639;28;20174;-63
2023/03/04 00:14:56;;;;;;;18.20;14.10;;;3.70;99.90;;;;;;5033319;28;20195;-65
2023/03/04 00:17:22;;;;;;;20.50;13.53;;;3.70;99.90;;;;;;5033492;28;20187;-64
2023/03/04 00:19:47;;;;;;;18.53;13.63;;;3.70;99.90;;;;;;5033051;28;20278;-64
2023/03/04 00:22:13;;;;;;;16.73;13.63;;;3.70;99.90;;;;;;5033344;28;20187;-63
2023/03/04 00:24:38;;;;;;;16.90;13.03;;;3.70;99.90;;;;;;5033467;28;20209;-63
2023/03/04 00:27:04;;;;;;;15.37;13.67;;;3.70;99.90;;;;;;5033005;28;20195;-63
2023/03/04 00:29:30;;;;;;;17.33;13.80;;;3.70;99.90;;;;;;5033121;28;20171;-63
2023/03/04 00:31:55;;;;;;;19.90;13.90;;;3.70;99.90;;;;;;5032890;28;20711;-63
2023/03/04 00:34:21;;;;;;;21.27;12.63;;;3.70;99.90;;;;;;5032319;28;20238;-63
2023/03/04 00:36:47;;;;;;;13.07;11.67;;;3.70;99.90;;;;;;5033174;28;20183;-63
2023/03/04 00:39:13;;;;;;;13.63;11.30;;;3.70;99.90;;;;;;5032799;28;20183;-63
2023/03/04 00:41:39;;;;;;;18.60;12.47;;;3.70;99.90;;;;;;5033086;28;20207;-63
2023/03/04 00:44:05;;;;;;;14.43;12.60;;;3.80;99.90;;;;;;5032444;28;20210;-63
2023/03/04 00:46:30;;;;;;;12.07;10.63;;;3.80;99.90;;;;;;5032891;28;20180;-63
2023/03/04 00:48:56;;;;;;;26.67;12.50;;;3.80;99.90;;;;;;5032786;28;20183;-63
2023/03/04 00:51:21;;;;;;;12.57;11.37;;;3.90;99.90;;;;;;5032485;28;20262;-63
2023/03/04 00:53:47;;;;;;;18.23;11.87;;;3.90;99.90;;;;;;5032584;28;20171;-63
2023/03/04 00:56:13;;;;;;;17.70;14.13;;;3.90;99.90;;;;;;5032625;28;20203;-63
2023/03/04 00:58:39;;;;;;;14.70;12.63;;;4.00;99.90;;;;;;5032411;28;20179;-63
2023/03/04 01:01:05;;;;;;;18.03;13.60;;;4.00;99.90;;;;;;5032384;28;20178;-63
2023/03/04 01:03:31;;;;;;;19.03;13.60;;;4.00;99.90;;;;;;5032554;28;20168;-64
2023/03/04 01:05:58;;;;;;;14.20;12.73;;;4.00;99.90;;;;;;5031896;28;20585;-63
2023/03/04 01:08:24;;;;;;;15.90;11.80;;;4.10;99.90;;;;;;5031785;28;20751;-63
2023/03/04 01:10:50;;;;;;;10.90;9.80;;;4.10;99.90;;;;;;5032274;28;20548;-63
2023/03/04 01:13:16;;;;;;;17.13;10.40;;;4.10;99.90;;;;;;5032120;28;20171;-63
2023/03/04 01:15:41;;;;;;;12.70;10.73;;;4.10;99.90;;;;;;5032385;28;20564;-63
2023/03/04 01:18:07;;;;;;;14.07;9.57;;;4.10;99.90;;;;;;5031955;28;20190;-63
2023/03/04 01:20:33;;;;;;;9.83;8.83;;;4.10;99.90;;;;;;5032152;28;20250;-63
2023/03/04 01:22:59;;;;;;;9.23;8.37;;;4.00;99.90;;;;;;5032649;28;20278;-64
2023/03/04 01:25:24;;;;;;;9.07;8.30;;;4.10;99.90;;;;;;5032148;28;20199;-64
2023/03/04 01:27:50;;;;;;;13.03;8.73;;;4.10;99.90;;;;;;5031922;28;20218;-63
2023/03/04 01:30:16;;;;;;;14.97;9.77;;;4.10;99.90;;;;;;5031515;28;20195;-63
2023/03/04 01:32:41;;;;;;;11.80;9.70;;;4.00;99.90;;;;;;5031969;28;20665;-63
2023/03/04 01:35:07;;;;;;;10.70;9.70;;;4.10;99.90;;;;;;5030897;28;20245;-63
2023/03/04 01:37:33;;;;;;;10.73;9.07;;;4.00;99.90;;;;;;5031751;28;20190;-63
2023/03/04 01:39:59;;;;;;;12.60;11.27;;;4.00;99.90;;;;;;5031623;28;20210;-63
2023/03/04 01:42:29;;;;;;;12.87;9.67;;;4.00;99.90;;;;;;5031512;28;20618;-63
2023/03/04 01:44:54;;;;;;;15.80;10.43;;;4.10;99.90;;;;;;5031794;28;20199;-64
2023/03/04 01:47:22;;;;;;;11.00;10.00;;;4.10;99.90;;;;;;5031470;28;20717;-63
2023/03/04 01:49:52;;;;;;;17.60;10.83;;;4.10;99.90;;;;;;5031663;28;20209;-64
2023/03/04 01:52:18;;;;;;;10.97;9.87;;;4.00;99.90;;;;;;5031486;28;20171;-63
2023/03/04 01:54:44;;;;;;;11.20;10.30;;;4.00;99.90;;;;;;5031787;28;20198;-63
2023/03/04 01:57:18;;;;;;;30.50;11.87;;;4.00;99.90;;;;;;5031152;28;20187;-63
2023/03/04 01:59:43;;;;;;;12.80;11.60;;;4.00;99.90;;;;;;5031402;28;20236;-63
2023/03/04 02:02:10;;;;;;;12.27;11.13;;;3.90;99.90;;;;;;5031285;28;20172;-63
2023/03/04 02:04:36;;;;;;;12.73;10.37;;;3.90;99.90;;;;;;5058216;22;20193;-65
2023/03/04 02:07:03;;;;;;;12.47;11.37;;;3.90;99.90;;;;;;5051392;28;20199;-63
2023/03/04 02:09:30;;;;;;;16.33;10.83;;;3.90;99.90;;;;;;5051375;28;20171;-63
2023/03/04 02:11:56;;;;;;;16.00;10.90;;;3.90;99.90;;;;;;5051112;28;20438;-65
2023/03/04 02:14:22;;;;;;;13.80;10.50;;;3.90;99.90;;;;;;5051286;28;20531;-63
2023/03/04 02:16:48;;;;;;;11.23;10.03;;;3.90;99.90;;;;;;5051277;28;20181;-63
2023/03/04 02:19:48;;;;;;;19.67;9.97;;;3.90;99.90;;;;;;5050798;28;20209;-63
2023/03/04 02:22:14;;;;;;;13.63;10.97;;;3.90;99.90;;;;;;5051296;28;20254;-63
2023/03/04 02:24:49;;;;;;;20.43;10.50;;;3.80;99.90;;;;;;5051343;28;20722;-61
2023/03/04 02:27:14;;;;;;;17.70;11.13;;;3.80;99.90;;;;;;5050922;28;20202;-63
2023/03/04 02:29:40;;;;;;;11.60;10.47;;;3.80;99.90;;;;;;5051262;28;20182;-63
2023/03/04 02:32:05;;;;;;;11.57;10.53;;;3.80;99.90;;;;;;5051158;28;20174;-63
2023/03/04 02:34:34;;;;;;;13.10;11.90;;;3.80;99.90;;;;;;5050250;28;20693;-61
2023/03/04 02:37:01;;;;;;;18.40;11.33;;;3.80;99.90;;;;;;5051338;28;20635;-65
2023/03/04 02:39:29;;;;;;;18.97;10.80;;;3.80;99.90;;;;;;5050930;28;20560;-63
2023/03/04 02:41:55;;;;;;;12.97;11.53;;;3.80;99.90;;;;;;5049922;28;20175;-63
2023/03/04 02:44:23;;;;;;;12.97;11.13;;;3.90;99.90;;;;;;5050913;28;20194;-63
2023/03/04 02:46:50;;;;;;;13.80;9.87;;;3.80;99.90;;;;;;5051228;28;20198;-63
2023/03/04 02:49:16;;;;;;;14.67;11.40;;;3.90;99.90;;;;;;5050876;28;20225;-63
2023/03/04 02:51:42;;;;;;;15.00;10.30;;;3.80;99.90;;;;;;5050915;28;20262;-62
2023/03/04 02:54:19;;;;;;;13.23;10.17;;;3.80;99.90;;;;;;5050671;28;20267;-63
2023/03/04 02:56:46;;;;;;;15.57;11.57;;;3.90;99.90;;;;;;5050985;28;20174;-65
2023/03/04 02:59:12;;;;;;;10.80;9.80;;;3.90;99.90;;;;;;5050893;28;20179;-65
2023/03/04 03:01:38;;;;;;;11.97;10.40;;;3.90;99.90;;;;;;5051113;28;20176;-64
2023/03/04 03:04:03;;;;;;;12.37;10.40;;;3.90;99.90;;;;;;5050337;28;20215;-65
2023/03/04 03:06:29;;;;;;;13.77;9.50;;;3.90;99.90;;;;;;5050762;28;20218;-65
2023/03/04 03:08:54;;;;;;;11.37;10.27;;;3.90;99.90;;;;;;5050845;28;20236;-65
2023/03/04 03:11:20;;;;;;;11.47;10.60;;;3.90;99.90;;;;;;5050292;28;20648;-63
2023/03/04 03:13:45;;;;;;;10.77;9.83;;;3.90;99.90;;;;;;5051141;28;20171;-62
2023/03/04 03:16:11;;;;;;;9.53;8.87;;;3.90;99.90;;;;;;5050478;28;20199;-63
2023/03/04 03:18:37;;;;;;;11.50;10.23;;;3.90;99.90;;;;;;5051025;28;20313;-65
2023/03/04 03:21:02;;;;;;;12.13;9.93;;;4.00;99.90;;;;;;5050348;28;20185;-62
2023/03/04 03:23:28;;;;;;;10.27;9.27;;;4.00;99.90;;;;;;5050883;28;20293;-65
2023/03/04 03:25:53;;;;;;;11.00;9.87;;;4.00;99.90;;;;;;5050573;28;20230;-65
2023/03/04 03:28:19;;;;;;;10.33;8.53;;;3.90;99.90;;;;;;5050552;28;20202;-64
2023/03/04 03:30:44;;;;;;;10.87;8.57;;;4.00;99.90;;;;;;5052785;28;20181;-63
2023/03/04 03:33:10;;;;;;;10.70;9.80;;;4.00;99.90;;;;;;5054411;28;20508;-63
2023/03/04 03:35:36;;;;;;;10.30;8.83;;;4.00;99.90;;;;;;5053347;28;20234;-63
2023/03/04 03:38:01;;;;;;;8.40;7.70;;;4.00;99.90;;;;;;5054311;28;20206;-63
2023/03/04 03:40:27;;;;;;;10.63;9.17;;;4.10;99.90;;;;;;5053566;28;20189;-63
2023/03/04 03:42:53;;;;;;;8.40;7.90;;;4.10;99.90;;;;;;5054325;28;20167;-63
2023/03/04 03:45:18;;;;;;;9.50;8.43;;;4.10;99.90;;;;;;5053784;28;20252;-63
2023/03/04 03:47:44;;;;;;;9.07;8.30;;;4.10;99.90;;;;;;5054261;28;20268;-66
2023/03/04 03:50:10;;;;;;;11.30;7.57;;;4.10;99.90;;;;;;5053351;28;20262;-63
2023/03/04 03:52:36;;;;;;;9.77;7.60;;;4.10;99.90;;;;;;5054550;28;20589;-63
2023/03/04 03:55:01;;;;;;;7.37;6.73;;;4.20;99.90;;;;;;5053739;28;20252;-63
2023/03/04 03:57:28;;;;;;;7.83;7.13;;;4.20;99.90;;;;;;5052295;28;20670;-64
2023/03/04 03:59:54;;;;;;;10.30;7.13;;;4.20;99.90;;;;;;5053454;28;20227;-63
2023/03/04 04:02:20;;;;;;;8.87;7.83;;;4.20;99.90;;;;;;5052379;28;20639;-63
2023/03/04 04:04:46;;;;;;;8.53;7.83;;;4.20;99.90;;;;;;5053391;28;20225;-63
2023/03/04 04:07:12;;;;;;;13.83;7.50;;;4.20;99.90;;;;;;5053694;28;20554;-63
2023/03/04 04:09:38;;;;;;;9.03;7.53;;;4.30;99.90;;;;;;5053271;28;20182;-62
2023/03/04 04:12:05;;;;;;;7.37;6.90;;;4.30;99.90;;;;;;5053660;28;20167;-63
2023/03/04 04:14:31;;;;;;;8.17;6.37;;;4.40;99.90;;;;;;5053333;28;20182;-63
2023/03/04 04:16:57;;;;;;;15.33;7.00;;;4.40;99.90;;;;;;5053365;28;20189;-62
2023/03/04 04:19:22;;;;;;;13.07;6.40;;;4.40;99.90;;;;;;5053437;28;20257;-64
2023/03/04 04:21:48;;;;;;;10.53;6.10;;;4.40;99.90;;;;;;5053279;28;20644;-64
2023/03/04 04:24:14;;;;;;;9.57;6.27;;;4.50;99.90;;;;;;5052829;28;20175;-64
2023/03/04 04:26:40;;;;;;;7.67;7.07;;;4.50;99.90;;;;;;5053313;28;20594;-63
2023/03/04 04:29:06;;;;;;;12.40;6.00;;;4.60;99.90;;;;;;5053179;28;20168;-63
2023/03/04 04:31:33;;;;;;;6.50;6.03;;;4.60;99.90;;;;;;5053232;28;20253;-64
2023/03/04 04:33:58;;;;;;;8.70;6.70;;;4.60;99.90;;;;;;5052483;28;20171;-63
2023/03/04 04:36:24;;;;;;;7.03;6.47;;;4.60;99.90;;;;;;5052679;28;20206;-64
2023/03/04 04:38:49;;;;;;;6.80;6.33;;;4.60;99.90;;;;;;5053195;28;20308;-64
2023/03/04 04:41:20;;;;;;;10.23;6.50;;;4.60;99.90;;;;;;5051121;28;20183;-64
2023/03/04 04:43:46;;;;;;;6.33;5.83;;;4.60;99.90;;;;;;5053131;28;20640;-64
2023/03/04 04:46:11;;;;;;;6.37;5.90;;;4.60;99.90;;;;;;5052510;28;20285;-63
2023/03/04 04:48:37;;;;;;;5.83;5.37;;;4.60;99.90;;;;;;5052916;28;20340;-62
2023/03/04 04:51:02;;;;;;;7.77;6.27;;;4.50;99.90;;;;;;5052418;28;20182;-63
2023/03/04 04:53:28;;;;;;;8.60;6.00;;;4.60;99.90;;;;;;5052565;28;20265;-64
2023/03/04 04:55:53;;;;;;;6.63;5.93;;;4.60;99.90;;;;;;5052766;28;20214;-63
2023/03/04 04:58:19;;;;;;;6.33;5.80;;;4.60;99.90;;;;;;5052337;28;20194;-64
2023/03/04 05:00:45;;;;;;;6.63;6.10;;;4.60;99.90;;;;;;5052238;28;20194;-63
2023/03/04 05:03:10;;;;;;;6.43;5.80;;;4.60;99.90;;;;;;5052429;28;20222;-63
2023/03/04 05:05:36;;;;;;;6.43;6.03;;;4.60;99.90;;;;;;5052476;28;20213;-63
2023/03/04 05:08:01;;;;;;;6.33;5.93;;;4.60;99.90;;;;;;5052265;28;20610;-64
2023/03/04 05:10:27;;;;;;;7.07;6.60;;;4.60;99.90;;;;;;5051879;28;20543;-64
2023/03/04 05:12:53;;;;;;;6.00;5.60;;;4.50;99.90;;;;;;5052593;28;20171;-64
2023/03/04 05:15:18;;;;;;;7.93;6.27;;;4.60;99.90;;;;;;5052059;28;20660;-63
2023/03/04 05:17:44;;;;;;;6.50;6.10;;;4.60;99.90;;;;;;5052479;28;20232;-63
2023/03/04 05:20:10;;;;;;;8.37;6.97;;;4.60;99.90;;;;;;5051633;28;20738;-63
2023/03/04 05:22:35;;;;;;;6.23;5.80;;;4.60;99.90;;;;;;5052255;28;20594;-63
2023/03/04 05:25:02;;;;;;;8.00;6.17;;;4.60;99.90;;;;;;5052294;28;20221;-62
2023/03/04 05:27:27;;;;;;;9.17;7.40;;;4.60;99.90;;;;;;5052106;28;20209;-65
2023/03/04 05:29:54;;;;;;;7.27;6.57;;;4.60;99.90;;;;;;5051701;28;20253;-65
2023/03/04 05:32:20;;;;;;;6.00;5.70;;;4.60;99.90;;;;;;5051924;28;20182;-63
2023/03/04 05:34:45;;;;;;;6.40;5.73;;;4.60;99.90;;;;;;5051166;28;20195;-62
2023/03/04 05:37:11;;;;;;;10.30;6.10;;;4.60;99.90;;;;;;5051735;28;20197;-63
2023/03/04 05:39:37;;;;;;;6.57;6.13;;;4.60;99.90;;;;;;5051451;28;20565;-63
2023/03/04 05:42:02;;;;;;;7.53;6.43;;;4.60;99.90;;;;;;5052231;28;20175;-63
2023/03/04 05:44:28;;;;;;;7.53;6.80;;;4.60;99.90;;;;;;5051411;28;20659;-63
2023/03/04 05:46:53;;;;;;;8.60;7.27;;;4.60;99.90;;;;;;5051856;28;20191;-63
2023/03/04 05:49:19;;;;;;;7.17;6.63;;;4.60;99.90;;;;;;5051354;28;20179;-63
2023/03/04 05:51:45;;;;;;;6.87;6.57;;;4.60;99.90;;;;;;5051820;28;20175;-63
2023/03/04 05:54:10;;;;;;;6.43;6.03;;;4.60;99.90;;;;;;5051076;28;20244;-63
2023/03/04 05:56:36;;;;;;;9.33;6.40;;;4.60;99.90;;;;;;5051014;28;20252;-65
2023/03/04 05:59:01;;;;;;;8.37;7.77;;;4.60;99.90;;;;;;5051289;28;20186;-63
2023/03/04 06:01:27;;;;;;;8.67;6.43;;;4.60;99.90;;;;;;5051417;28;20170;-61
2023/03/04 06:03:52;;;;;;;6.63;6.13;;;4.60;99.90;;;;;;5051775;28;20167;-63
2023/03/04 06:06:18;;;;;;;11.53;10.47;;;4.60;99.90;;;;;;5051313;28;20210;-63
2023/03/04 06:08:43;;;;;;;6.53;6.07;;;4.70;99.90;;;;;;5051274;28;20758;-63
2023/03/04 06:11:09;;;;;;;7.17;6.50;;;4.70;99.90;;;;;;5050958;28;20182;-63
2023/03/04 06:13:35;;;;;;;8.17;7.57;;;4.70;99.90;;;;;;5051529;28;20171;-63
2023/03/04 06:16:01;;;;;;;8.00;7.40;;;4.70;99.90;;;;;;5051182;28;20225;-62
2023/03/04 06:18:27;;;;;;;9.20;7.73;;;4.70;99.90;;;;;;5051448;28;20175;-63
2023/03/04 06:21:01;;;;;;;8.23;7.73;;;4.70;99.90;;;;;;5051248;28;20543;-63
2023/03/04 06:23:26;;;;;;;9.47;8.80;;;4.80;99.90;;;;;;5051257;28;20229;-65
2023/03/04 06:25:54;;;;;;;8.37;7.77;;;4.70;99.90;;;;;;5051509;28;20257;-63
2023/03/04 06:28:20;;;;;;;7.13;6.50;;;4.70;99.90;;;;;;5050637;28;20330;-63
2023/03/04 06:30:45;;;;;;;8.63;7.03;;;4.80;99.90;;;;;;5051173;28;20257;-63
2023/03/04 06:33:11;;;;;;;7.37;6.77;;;4.80;99.90;;;;;;5051140;28;20244;-66
2023/03/04 06:35:36;;;;;;;7.63;7.13;;;4.80;99.90;;;;;;5051198;28;20191;-61
2023/03/04 06:38:02;;;;;;;8.43;5.97;;;4.80;99.90;;;;;;5051155;28;20183;-64
2023/03/04 06:40:28;;;;;;;5.83;5.33;;;4.80;99.90;;;;;;5049292;28;20562;-63
2023/03/04 06:42:53;;;;;;;6.97;5.40;;;4.80;99.90;;;;;;5051363;28;20179;-63
2023/03/04 06:45:19;;;;;;;7.40;5.60;;;4.80;99.90;;;;;;5050824;28;20206;-62
2023/03/04 06:47:44;;;;;;;5.73;5.43;;;4.80;99.90;;;;;;5050263;28;20206;-63
2023/03/04 06:50:11;;;;;;;6.70;6.20;;;4.90;99.90;;;;;;5050764;28;20179;-63
2023/03/04 06:52:37;;;;;;;6.60;6.00;;;4.80;99.90;;;;;;5050837;28;20192;-65
2023/03/04 06:55:04;;;;;;;8.80;5.97;;;4.80;99.90;;;;;;5050999;28;20213;-64
2023/03/04 06:57:29;;;;;;;6.13;5.67;;;4.90;99.90;;;;;;5051104;28;20221;-65
2023/03/04 06:59:55;;;;;;;6.37;6.00;;;4.80;99.90;;;;;;5050856;28;20590;-63
2023/03/04 07:02:21;;;;;;;6.10;5.73;;;4.90;99.90;;;;;;5050878;28;20174;-63
2023/03/04 07:04:46;;;;;;;7.27;6.70;;;4.90;99.90;;;;;;5051236;28;20206;-62
2023/03/04 07:07:12;;;;;;;6.80;5.73;;;5.00;99.90;;;;;;5054493;28;20198;-63
2023/03/04 07:09:38;;;;;;;6.97;6.13;;;5.00;99.90;;;;;;5054509;28;20653;-63
2023/03/04 07:12:03;;;;;;;7.10;6.53;;;5.00;99.90;;;;;;5054835;28;20588;-64
2023/03/04 07:14:29;;;;;;;6.80;6.40;;;5.10;99.90;;;;;;5051404;28;20671;-63
2023/03/04 07:16:55;;;;;;;7.00;6.60;;;5.10;99.90;;;;;;5054452;28;20179;-63
2023/03/04 07:19:21;;;;;;;6.27;5.80;;;5.10;99.90;;;;;;5053994;28;20179;-63
2023/03/04 07:21:46;;;;;;;7.90;6.50;;;5.10;99.90;;;;;;5054470;28;20588;-65
2023/03/04 07:24:12;;;;;;;8.93;8.33;;;5.10;99.90;;;;;;5054063;28;20178;-65
2023/03/04 07:26:38;;;;;;;8.93;8.13;;;5.20;99.90;;;;;;5054219;28;20203;-63
2023/03/04 07:29:05;;;;;;;8.23;7.87;;;5.10;99.90;;;;;;5054739;28;20647;-62
2023/03/04 07:31:33;;;;;;;8.77;7.70;;;5.10;99.90;;;;;;5054243;28;20166;-62
2023/03/04 07:34:01;;;;;;;7.83;7.13;;;5.10;99.90;;;;;;5053125;28;20631;-63
2023/03/04 07:36:27;;;;;;;7.73;7.03;;;5.20;99.90;;;;;;5051113;28;20199;-63
2023/03/04 07:38:56;;;;;;;11.97;6.53;;;5.20;99.90;;;;;;5053908;28;20193;-63
2023/03/04 07:41:24;;;;;;;6.23;5.93;;;5.20;99.90;;;;;;5053377;28;20177;-63
2023/03/04 07:43:50;;;;;;;8.43;6.83;;;5.20;99.90;;;;;;5053915;28;20185;-62
2023/03/04 07:46:16;;;;;;;7.90;7.40;;;5.30;99.90;;;;;;5053860;28;20261;-65
2023/03/04 07:48:42;;;;;;;7.10;6.53;;;5.30;99.90;;;;;;5056709;28;20574;-65
2023/03/04 07:51:22;;;;;;;8.07;7.57;;;5.30;99.90;;;;;;5053314;28;20186;-64
2023/03/04 07:53:50;;;;;;;6.90;6.50;;;5.30;99.90;;;;;;5053836;28;20256;-65
2023/03/04 07:56:19;;;;;;;7.20;6.70;;;5.30;99.90;;;;;;5054008;28;20253;-64
2023/03/04 07:58:45;;;;;;;6.43;6.03;;;5.40;99.90;;;;;;5053680;28;20189;-65
2023/03/04 08:01:13;;;;;;;5.40;5.10;;;5.40;99.90;;;;;;5053189;28;20229;-65
2023/03/04 08:03:39;;;;;;;7.10;5.57;;;5.50;99.90;;;;;;5053896;28;20178;-65
2023/03/04 08:06:06;;;;;;;6.63;6.03;;;5.50;99.90;;;;;;5053663;28;20214;-65
2023/03/04 08:08:32;;;;;;;7.70;6.00;;;5.60;99.90;;;;;;5053454;28;20263;-64
2023/03/04 08:10:58;;;;;;;6.77;5.80;;;5.60;99.90;;;;;;5052823;28;20715;-65
2023/03/04 08:13:23;;;;;;;8.40;5.73;;;5.70;99.90;;;;;;5053577;28;20603;-64
2023/03/04 08:15:49;;;;;;;6.70;6.30;;;5.80;99.90;;;;;;5052986;28;20198;-62
2023/03/04 08:18:14;;;;;;;7.07;6.47;;;5.80;99.90;;;;;;5053076;28;20253;-63
2023/03/04 08:20:42;;;;;;;7.60;5.50;;;5.90;99.90;;;;;;5052691;28;20187;-64
2023/03/04 08:23:08;;;;;;;6.37;5.97;;;5.80;99.90;;;;;;5053207;28;20183;-61
2023/03/04 08:25:38;;;;;;;6.90;6.20;;;5.80;99.90;;;;;;5052904;28;20203;-64
2023/03/04 08:28:04;;;;;;;5.97;5.67;;;5.90;99.90;;;;;;5033219;28;20555;-63
2023/03/04 08:30:29;;;;;;;8.90;6.10;;;5.90;99.90;;;;;;5045010;28;20187;-64
2023/03/04 08:32:55;;;;;;;7.73;6.73;;;5.90;99.90;;;;;;5053240;28;20668;-64
2023/03/04 08:35:20;;;;;;;6.50;5.83;;;6.10;99.90;;;;;;5052730;28;20201;-63
2023/03/04 08:37:46;;;;;;;5.40;5.00;;;6.30;99.90;;;;;;5053262;28;20186;-64
2023/03/04 08:40:13;;;;;;;8.27;7.43;;;6.40;99.90;;;;;;5052534;28;20451;-64
2023/03/04 08:42:38;;;;;;;6.90;5.73;;;6.20;99.90;;;;;;5052886;28;20193;-63
2023/03/04 08:45:04;;;;;;;8.03;7.30;;;6.10;99.90;;;;;;5050483;28;20314;-64
2023/03/04 08:47:30;;;;;;;6.20;5.73;;;6.00;99.90;;;;;;5052813;28;20290;-64
2023/03/04 08:49:57;;;;;;;5.80;5.43;;;6.10;99.90;;;;;;5052128;28;20573;-64
2023/03/04 08:52:23;;;;;;;8.83;6.90;;;6.00;99.90;;;;;;5052558;28;20540;-64
2023/03/04 08:54:48;;;;;;;6.00;5.50;;;5.90;99.90;;;;;;5051229;28;20203;-64
2023/03/04 08:57:14;;;;;;;5.70;5.30;;;5.80;99.90;;;;;;5052646;28;20627;-64
2023/03/04 08:59:39;;;;;;;6.13;5.73;;;5.80;99.90;;;;;;5052228;28;20190;-64
2023/03/04 09:02:05;;;;;;;9.10;5.70;;;5.80;99.90;;;;;;5052448;28;20183;-64
2023/03/04 09:04:31;;;;;;;5.90;5.20;;;5.80;99.90;;;;;;5052194;28;20266;-63
2023/03/04 09:06:56;;;;;;;5.23;4.93;;;5.90;99.90;;;;;;5051469;28;20203;-64
2023/03/04 09:09:22;;;;;;;6.00;5.00;;;6.10;99.90;;;;;;5052225;28;20194;-63
2023/03/04 09:11:48;;;;;;;5.30;5.00;;;6.30;99.90;;;;;;5053005;28;20253;-63
2023/03/04 09:14:13;;;;;;;5.33;4.83;;;6.40;99.90;;;;;;5052185;28;20513;-63
2023/03/04 09:16:39;;;;;;;4.90;4.70;;;6.60;99.90;;;;;;5052140;28;20194;-64
2023/03/04 09:19:05;;;;;;;6.00;5.50;;;6.90;99.90;;;;;;5051781;28;20214;-64
2023/03/04 09:21:30;;;;;;;5.77;5.37;;;7.10;99.90;;;;;;5052128;28;20175;-63
2023/03/04 09:23:56;;;;;;;6.23;5.63;;;7.30;99.90;;;;;;5052094;28;20171;-63
2023/03/04 09:26:27;;;;;;;6.53;6.13;;;7.50;99.90;;;;;;5051938;28;20210;-63
2023/03/04 09:28:54;;;;;;;5.63;5.13;;;7.50;99.90;;;;;;5051220;28;20741;-63
2023/03/04 09:31:21;;;;;;;5.90;5.40;;;7.60;99.90;;;;;;5051728;28;20228;-63
2023/03/04 09:33:46;;;;;;;7.73;5.80;;;7.70;99.90;;;;;;5052076;28;20624;-63
2023/03/04 09:36:14;;;;;;;5.87;5.37;;;7.60;99.90;;;;;;5051564;28;20260;-64
2023/03/04 09:38:40;;;;;;;5.13;4.83;;;7.60;99.90;;;;;;5052079;28;20175;-64
2023/03/04 09:41:21;;;;;;;5.73;5.37;;;7.50;99.90;;;;;;5051217;28;20190;-63
2023/03/04 09:43:48;;;;;;;5.80;5.50;;;7.30;99.90;;;;;;5051935;28;20538;-64
2023/03/04 09:46:22;;;;;;;9.37;6.90;;;7.30;99.90;;;;;;5051378;28;20211;-64
2023/03/04 09:48:53;;;;;;;5.60;5.30;;;7.30;99.90;;;;;;5051740;28;20206;-64
2023/03/04 09:51:39;;;;;;;6.33;5.93;;;7.30;99.90;;;;;;5051019;28;20709;-64
2023/03/04 09:54:19;;;;;;;7.90;5.83;;;7.30;99.90;;;;;;5051565;28;20723;-63
2023/03/04 09:56:44;;;;;;;6.63;5.60;;;7.30;99.90;;;;;;5051512;28;20544;-63
2023/03/04 09:59:16;;;;;;;8.90;5.47;;;7.30;99.90;;;;;;5050969;28;20178;-64
2023/03/04 10:01:48;;;;;;;8.53;5.97;;;7.20;99.90;;;;;;5051536;28;20185;-64
2023/03/04 10:04:33;;;;;;;6.20;5.70;;;7.10;99.90;;;;;;5051188;28;20559;-64
2023/03/04 10:07:00;;;;;;;5.73;5.43;;;7.10;99.90;;;;;;5049985;28;20203;-65
2023/03/04 10:09:46;;;;;;;5.57;5.17;;;7.00;99.90;;;;;;5051258;28;20179;-64
2023/03/04 10:12:16;;;;;;;5.57;5.17;;;6.80;99.90;;;;;;5051313;28;20179;-64
2023/03/04 10:14:44;;;;;;;5.33;4.97;;;6.70;99.90;;;;;;5051109;28;20198;-63
2023/03/04 10:17:18;;;;;;;5.30;5.00;;;6.70;99.90;;;;;;5050044;28;20186;-63
2023/03/04 10:19:50;;;;;;;5.03;4.73;;;6.80;99.90;;;;;;5049666;28;20184;-63
2023/03/04 10:22:40;;;;;;;5.40;5.00;;;6.90;99.90;;;;;;5051148;28;20281;-63
2023/03/04 10:25:42;;;;;;;5.87;5.57;;;7.10;99.90;;;;;;5050993;28;20248;-63
2023/03/04 10:28:14;;;;;;;5.87;5.37;;;7.20;99.90;;;;;;5018809;28;20234;-63
2023/03/04 10:31:10;;;;;;;5.63;5.17;;;7.20;99.90;;;;;;5050708;28;20189;-63
2023/03/04 10:33:38;;;;;;;6.17;5.80;;;7.30;99.90;;;;;;5051498;28;20185;-63
2023/03/04 10:36:24;;;;;;;7.30;6.17;;;7.40;99.90;;;;;;5050810;28;20206;-63
2023/03/04 10:38:53;;;;;;;6.40;5.90;;;7.50;99.90;;;;;;5038229;28;20567;-63
2023/03/04 10:41:25;;;;;;;6.00;5.67;;;7.80;99.90;;;;;;5054979;28;20182;-63
2023/03/04 10:44:09;;;;;;;7.53;4.93;;;8.10;99.90;;;;;;5055039;28;20204;-64
2023/03/04 10:46:43;;;;;;;5.37;4.87;;;8.20;99.90;;;;;;5054912;28;20285;-63
2023/03/04 10:49:10;;;;;;;7.93;4.87;;;8.30;99.90;;;;;;5054690;28;20235;-63
2023/03/04 10:51:45;;;;;;;12.17;4.87;;;8.20;99.90;;;;;;5053285;28;20189;-63
2023/03/04 10:54:25;;;;;;;6.47;5.97;;;8.10;99.90;;;;;;5054752;28;20170;-63
2023/03/04 10:57:02;;;;;;;5.87;5.30;;;7.90;99.90;;;;;;5055133;28;20221;-63
2023/03/04 10:59:31;;;;;;;5.47;5.13;;;7.90;99.90;;;;;;5054583;28;20272;-63
2023/03/04 11:02:00;;;;;;;5.57;5.37;;;7.90;99.90;;;;;;5054916;28;20175;-63
2023/03/04 11:04:31;;;;;;;5.60;5.30;;;7.80;99.90;;;;;;5051027;28;20250;-63
2023/03/04 11:06:57;;;;;;;5.43;5.03;;;8.00;99.90;;;;;;5053892;28;20336;-64
2023/03/04 11:09:30;;;;;;;5.30;5.00;;;8.50;99.90;;;;;;5054204;28;20245;-63
2023/03/04 11:12:01;;;;;;;5.20;4.80;;;9.00;99.90;;;;;;5054293;28;20206;-64
2023/03/04 11:14:29;;;;;;;4.67;4.37;;;9.20;99.90;;;;;;5054005;28;20179;-64
2023/03/04 11:17:01;;;;;;;4.70;4.50;;;8.90;99.90;;;;;;5054216;28;20178;-63
2023/03/04 11:19:51;;;;;;;7.47;4.93;;;8.60;99.90;;;;;;5053509;28;20222;-63
2023/03/04 11:22:20;;;;;;;7.70;5.30;;;8.30;99.90;;;;;;5054205;28;20171;-64
2023/03/04 11:24:56;;;;;;;4.57;4.37;;;8.20;99.90;;;;;;5054474;28;20195;-63
2023/03/04 11:27:36;;;;;;;5.40;5.10;;;8.00;99.90;;;;;;5052246;28;21321;-61
2023/03/04 11:30:35;;;;;;;5.43;5.23;;;7.90;99.90;;;;;;5054010;28;20544;-63
2023/03/04 11:33:26;;;;;;;5.53;5.30;;;7.70;99.90;;;;;;5054224;28;20182;-63
2023/03/04 11:36:15;;;;;;;5.43;5.03;;;7.60;99.90;;;;;;5053707;28;20195;-63
2023/03/04 11:38:46;;;;;;;6.20;5.70;;;7.60;99.90;;;;;;5054284;28;20657;-63
2023/03/04 11:41:18;;;;;;;5.17;4.93;;;7.70;99.90;;;;;;5053912;28;20541;-63
2023/03/04 11:43:45;;;;;;;5.27;4.83;;;7.90;99.90;;;;;;5053971;28;20175;-63
2023/03/04 11:46:40;;;;;;;5.00;4.80;;;8.00;99.90;;;;;;5053819;28;20218;-63
2023/03/04 11:49:15;;;;;;;4.97;4.53;;;8.20;99.90;;;;;;5044232;28;20210;-63
2023/03/04 11:52:15;;;;;;;4.90;4.60;;;8.30;99.90;;;;;;5053093;28;20178;-63
2023/03/04 11:55:10;;;;;;;4.50;4.10;;;8.50;99.90;;;;;;5037974;28;20206;-63
2023/03/04 11:58:14;;;;;;;5.30;4.80;;;8.60;99.90;;;;;;5054022;28;20244;-63
2023/03/04 12:00:48;;;;;;;5.13;4.83;;;9.00;99.90;;;;;;5019663;28;20202;-63
2023/03/04 12:03:36;;;;;;;4.53;4.23;;;9.30;99.90;;;;;;5053449;28;20203;-63
2023/03/04 12:06:20;;;;;;;9.87;4.40;;;9.70;99.90;;;;;;5052838;28;20210;-63
2023/03/04 12:08:58;;;;;;;4.10;3.90;;;10.10;99.90;;;;;;5053164;28;20221;-62
2023/03/04 12:11:43;;;;;;;9.97;4.57;;;10.30;99.90;;;;;;5052807;28;20392;-63
2023/03/04 12:14:20;;;;;;;4.60;4.30;;;10.10;99.90;;;;;;5021451;28;20187;-63
2023/03/04 12:17:18;;;;;;;7.57;4.70;;;10.00;99.90;;;;;;5053016;28;20656;-63
2023/03/04 12:20:03;;;;;;;4.63;4.43;;;9.80;99.90;;;;;;5033152;28;20237;-62
2023/03/04 12:22:44;;;;;;;4.37;4.17;;;9.50;99.90;;;;;;5046705;28;20179;-63
2023/03/04 12:25:28;;;;;;;6.13;4.43;;;9.20;99.90;;;;;;5052823;28;20197;-63
2023/03/04 12:28:23;;;;;;;5.03;4.63;;;9.10;99.90;;;;;;5053015;28;20210;-63
2023/03/04 12:30:58;;;;;;;5.57;5.07;;;9.00;99.90;;;;;;5051835;28;20183;-63
2023/03/04 12:33:42;;;;;;;5.17;4.77;;;9.00;99.90;;;;;;5050837;28;20222;-63
2023/03/04 12:36:34;;;;;;;5.13;4.83;;;9.00;99.90;;;;;;5052481;28;20683;-63
2023/03/04 12:39:22;;;;;;;5.07;4.87;;;9.10;99.90;;;;;;5052753;28;20186;-63
2023/03/04 12:42:12;;;;;;;4.83;4.60;;;9.20;99.90;;;;;;5052628;28;20186;-62
2023/03/04 12:45:06;;;;;;;9.10;5.57;;;9.20;99.90;;;;;;5038485;28;20210;-63
2023/03/04 12:47:45;;;;;;;4.80;4.60;;;9.20;99.90;;;;;;5052886;28;20566;-63
2023/03/04 12:50:55;;;;;;;5.00;4.50;;;9.20;99.90;;;;;;5052075;28;20183;-63
2023/03/04 12:53:48;;;;;;;5.47;5.07;;;9.20;99.90;;;;;;5037602;28;20224;-63
2023/03/04 12:56:47;;;;;;;6.03;5.73;;;9.20;99.90;;;;;;5052277;28;20213;-63
2023/03/04 12:59:17;;;;;;;5.10;4.73;;;9.20;99.90;;;;;;5051984;28;20266;-66
2023/03/04 13:01:55;;;;;;;8.20;5.23;;;9.30;99.90;;;;;;5052038;28;20265;-64